KAXV/AXV METAR and TAF weather

Enter ICAO airport designator
Station Type Date Time Source
KAXV METAR 2019/04/24 22:15 UTC NOAA

KAXV 242215Z AUTO 00000KT 7SM OVC055 13/03 A2994 RMK AO2


Station Type Date Time Source
KAXV Decoded METAR 2019/04/24 22:15 UTC NOAA

Station name not available
Apr 24, 2019 - 06:15 PM EDT / 2019.04.24 2215 UTC
Wind: Calm:0
Visibility: 7 mile(s):0
Sky conditions: overcast
Temperature: 55 F (13 C)
Dew Point: 37 F (3 C)
Relative Humidity: 50%
Pressure (altimeter): 29.94 in. Hg (1013 hPa)
ob: KAXV 242215Z AUTO 00000KT 7SM OVC055 13/03 A2994 RMK AO2
cycle: 22

Station Type Date Time Source
KAXV TAF UTC NOAA

Error!

Example: see airport list